createdAt,value
2022-10-15T00:02:16.063Z,78.40
2022-10-15T00:07:36.825Z,78.25
2022-10-15T00:12:39.168Z,78.31
2022-10-15T00:17:41.458Z,78.30
2022-10-15T00:22:43.762Z,78.17
2022-10-15T00:27:46.477Z,78.33
2022-10-15T00:32:48.672Z,78.57
2022-10-15T00:38:09.549Z,78.49
2022-10-15T00:43:12.170Z,78.44
2022-10-15T00:48:14.475Z,78.38
2022-10-15T00:53:17.246Z,78.24
2022-10-15T00:58:28.714Z,78.58
2022-10-15T01:03:31.167Z,78.36
2022-10-15T01:08:34.787Z,78.31
2022-10-15T01:14:00.348Z,78.74
2022-10-15T01:19:06.834Z,78.35
2022-10-15T01:24:58.300Z,78.73
2022-10-15T01:30:25.815Z,78.61
2022-10-15T01:35:50.893Z,78.90
2022-10-15T01:41:29.355Z,78.79
2022-10-15T01:46:43.360Z,78.74
2022-10-15T01:51:51.861Z,78.26
2022-10-15T01:56:55.071Z,78.19
2022-10-15T02:02:16.320Z,78.49
2022-10-15T02:07:18.676Z,78.52
2022-10-15T02:13:04.004Z,78.82
2022-10-15T02:18:24.739Z,78.63
2022-10-15T02:24:02.429Z,78.91
2022-10-15T02:29:06.574Z,78.29
2022-10-15T02:34:12.492Z,78.56
2022-10-15T02:39:34.381Z,78.57
2022-10-15T02:44:36.726Z,78.71
2022-10-15T02:49:39.610Z,78.50
2022-10-15T02:54:42.722Z,78.66
2022-10-15T02:59:45.101Z,78.55
2022-10-15T03:05:06.168Z,78.56
2022-10-15T03:10:08.531Z,78.65
2022-10-15T03:15:29.730Z,78.80
2022-10-15T03:20:32.410Z,78.66
2022-10-15T03:25:34.791Z,78.90
2022-10-15T03:30:39.988Z,78.81
2022-10-15T03:35:42.807Z,78.86
2022-10-15T03:40:46.198Z,78.79
2022-10-15T03:46:16.858Z,78.90
2022-10-15T03:51:24.522Z,78.77
2022-10-15T03:56:35.303Z,78.85
2022-10-15T04:01:54.176Z,78.87
2022-10-15T04:06:56.607Z,78.95
2022-10-15T04:11:59.758Z,78.97
2022-10-15T04:17:02.352Z,78.98
2022-10-15T04:22:25.233Z,79.01
2022-10-15T04:27:32.728Z,79.25
2022-10-15T04:32:42.142Z,79.02
2022-10-15T04:37:44.467Z,78.93
2022-10-15T04:42:46.797Z,78.82
2022-10-15T04:47:49.539Z,78.86
2022-10-15T04:52:53.433Z,78.91
2022-10-15T04:58:00.096Z,78.88
2022-10-15T05:03:06.736Z,78.66
2022-10-15T05:08:24.487Z,78.81
2022-10-15T05:13:40.659Z,78.75
2022-10-15T05:18:45.810Z,78.61
2022-10-15T05:23:50.307Z,78.65
2022-10-15T05:29:14.860Z,78.71
2022-10-15T05:34:35.554Z,78.63
2022-10-15T05:39:42.825Z,78.49
2022-10-15T05:44:46.417Z,78.63
2022-10-15T05:50:11.018Z,78.44
2022-10-15T05:55:18.892Z,78.21
2022-10-15T06:00:21.265Z,78.33
2022-10-15T06:05:30.961Z,78.10
2022-10-15T06:10:38.064Z,77.99
2022-10-15T06:15:41.597Z,78.12
2022-10-15T06:20:45.734Z,77.85
2022-10-15T06:25:49.744Z,77.80
2022-10-15T06:30:52.011Z,77.77
2022-10-15T06:35:59.744Z,77.39
2022-10-15T06:41:06.346Z,77.13
2022-10-15T06:46:27.201Z,76.90
2022-10-15T06:51:32.296Z,76.96
2022-10-15T06:56:34.531Z,76.72
2022-10-15T07:01:41.503Z,76.38
2022-10-15T07:06:54.355Z,76.17
2022-10-15T07:11:58.155Z,76.29
2022-10-15T07:17:01.437Z,76.27
2022-10-15T07:22:04.735Z,76.04
2022-10-15T07:27:17.129Z,75.79
2022-10-15T07:32:21.287Z,75.65
2022-10-15T07:37:26.626Z,75.32
2022-10-15T07:42:28.823Z,75.28
2022-10-15T07:47:31.142Z,75.07
2022-10-15T07:52:36.000Z,74.94
2022-10-15T07:57:38.303Z,74.70
2022-10-15T08:02:41.058Z,74.64
2022-10-15T08:07:44.459Z,74.31
2022-10-15T08:12:48.870Z,73.91
2022-10-15T08:17:51.166Z,73.73
2022-10-15T08:23:17.285Z,73.38
2022-10-15T08:28:19.665Z,73.43
2022-10-15T08:33:22.024Z,73.32
2022-10-15T08:38:25.153Z,73.24
2022-10-15T08:43:38.454Z,72.50
2022-10-15T08:48:52.004Z,72.12
2022-10-15T08:53:58.420Z,72.12
2022-10-15T08:59:33.389Z,71.30
2022-10-15T09:04:51.212Z,71.75
2022-10-15T09:10:18.764Z,70.98
2022-10-15T09:15:24.113Z,71.11
2022-10-15T09:20:35.034Z,70.40
2022-10-15T09:25:38.524Z,70.87
2022-10-15T09:30:53.823Z,70.47
2022-10-15T09:36:17.756Z,70.56
2022-10-15T09:41:57.894Z,69.68
2022-10-15T09:47:15.712Z,69.85
2022-10-15T09:52:52.195Z,69.94
2022-10-15T09:58:00.746Z,70.02
2022-10-15T10:03:08.343Z,69.81
2022-10-15T10:08:11.789Z,69.74
2022-10-15T10:13:25.753Z,68.84
2022-10-15T10:18:28.568Z,69.25
2022-10-15T10:23:39.654Z,68.91
2022-10-15T10:28:57.092Z,68.87
2022-10-15T10:34:07.477Z,69.30
2022-10-15T10:39:10.548Z,69.18
2022-10-15T10:44:21.820Z,68.57
2022-10-15T10:49:35.692Z,69.05
2022-10-15T10:54:39.377Z,69.24
2022-10-15T11:00:01.344Z,68.82
2022-10-15T11:05:05.747Z,69.00
2022-10-15T11:10:42.420Z,68.52
2022-10-15T11:15:56.399Z,68.78
2022-10-15T11:21:31.392Z,68.01
2022-10-15T11:26:37.527Z,68.62
2022-10-15T11:32:42.102Z,67.93
2022-10-15T11:38:18.358Z,67.92
2022-10-15T11:43:38.777Z,68.15
2022-10-15T11:49:07.088Z,67.21
2022-10-15T11:54:43.573Z,66.79
2022-10-15T11:59:57.106Z,67.00
2022-10-15T12:05:06.095Z,67.06
2022-10-15T12:10:33.255Z,66.55
2022-10-15T12:15:54.113Z,66.33
2022-10-15T12:20:58.743Z,66.75
2022-10-15T12:26:01.020Z,66.49
2022-10-15T12:31:05.224Z,65.95
2022-10-15T12:36:20.120Z,65.83
2022-10-15T12:41:22.465Z,65.43
2022-10-15T12:46:43.553Z,64.88
2022-10-15T12:51:45.795Z,64.51
2022-10-15T12:56:49.953Z,64.20
2022-10-15T13:01:53.545Z,63.93
2022-10-15T13:07:04.112Z,62.97
2022-10-15T13:12:06.456Z,64.25
2022-10-15T13:17:20.273Z,63.46
2022-10-15T13:22:28.423Z,64.03
2022-10-15T13:27:37.936Z,63.79
2022-10-15T13:32:59.186Z,64.18
2022-10-15T13:38:03.685Z,64.20
2022-10-15T13:43:27.758Z,64.31
2022-10-15T13:48:32.143Z,64.35
2022-10-15T13:53:53.357Z,64.98
2022-10-15T13:58:56.209Z,64.96
2022-10-15T14:04:00.618Z,65.09
2022-10-15T14:09:27.305Z,65.27
2022-10-15T14:14:41.826Z,65.53
2022-10-15T14:20:26.355Z,65.79
2022-10-15T14:25:28.880Z,66.17
2022-10-15T14:30:32.929Z,66.60
2022-10-15T14:35:38.687Z,66.73
2022-10-15T14:40:41.092Z,67.08
2022-10-15T14:45:52.592Z,67.03
2022-10-15T14:50:59.531Z,67.17
2022-10-15T14:56:23.774Z,67.28
2022-10-15T15:01:27.855Z,67.28
2022-10-15T15:06:30.681Z,67.71
2022-10-15T15:11:32.924Z,67.94
2022-10-15T15:16:35.224Z,68.18
2022-10-15T15:21:37.414Z,68.37
2022-10-15T15:26:39.626Z,68.84
2022-10-15T15:31:43.000Z,68.84
2022-10-15T15:36:45.269Z,68.97
2022-10-15T15:41:47.889Z,68.98
2022-10-15T15:46:55.382Z,69.08
2022-10-15T15:51:57.639Z,68.98
2022-10-15T15:56:59.986Z,69.46
2022-10-15T16:02:04.704Z,69.57
2022-10-15T16:07:09.060Z,69.77
2022-10-15T16:12:14.132Z,70.15
2022-10-15T16:17:16.483Z,70.32
2022-10-15T16:22:18.864Z,70.24
2022-10-15T16:27:21.209Z,70.50
2022-10-15T16:32:23.907Z,70.82
2022-10-15T16:37:27.680Z,71.08
2022-10-15T16:42:30.304Z,71.30
2022-10-15T16:47:32.730Z,71.56
2022-10-15T16:52:36.814Z,71.53
2022-10-15T16:57:39.564Z,71.84
2022-10-15T17:02:43.071Z,71.88
2022-10-15T17:07:45.390Z,72.17
2022-10-15T17:13:06.316Z,72.19
2022-10-15T17:18:08.681Z,72.25
2022-10-15T17:23:10.951Z,72.69
2022-10-15T17:28:14.952Z,72.88
2022-10-15T17:33:17.337Z,72.87
2022-10-15T17:38:21.929Z,72.96
2022-10-15T17:43:43.916Z,73.05
2022-10-15T17:48:46.403Z,73.14
2022-10-15T17:53:51.685Z,73.27
2022-10-15T17:58:54.256Z,73.31
2022-10-15T18:03:56.765Z,73.40
2022-10-15T18:09:01.266Z,73.55
2022-10-15T18:14:04.308Z,73.61
2022-10-15T18:19:06.944Z,73.85
2022-10-15T18:24:09.232Z,73.43
2022-10-15T18:29:11.577Z,73.77
2022-10-15T18:34:14.134Z,73.97
2022-10-15T18:39:16.457Z,73.92
2022-10-15T18:44:21.685Z,74.13
2022-10-15T18:49:24.000Z,74.09
2022-10-15T18:54:26.225Z,74.22
2022-10-15T18:59:28.601Z,74.21
2022-10-15T19:04:33.384Z,74.18
2022-10-15T19:09:37.735Z,74.20
2022-10-15T19:14:40.239Z,74.13
2022-10-15T19:19:43.490Z,74.33
2022-10-15T19:24:45.753Z,74.24
2022-10-15T19:29:48.134Z,74.30
2022-10-15T19:34:50.501Z,74.49
2022-10-15T19:40:11.081Z,74.47
2022-10-15T19:50:40.478Z,74.69
2022-10-15T19:55:44.932Z,74.59
2022-10-15T20:01:06.865Z,74.81
2022-10-15T20:06:09.435Z,74.70
2022-10-15T20:11:30.703Z,74.62
2022-10-15T20:16:33.741Z,74.62
2022-10-15T20:21:37.918Z,74.66
2022-10-15T20:26:40.340Z,74.62
2022-10-15T20:31:42.593Z,74.90
2022-10-15T20:36:45.953Z,74.84
2022-10-15T20:41:51.753Z,74.58
2022-10-15T20:47:14.336Z,74.60
2022-10-15T20:52:24.473Z,74.61
2022-10-15T20:57:26.990Z,74.59
2022-10-15T21:02:29.848Z,74.79
2022-10-15T21:07:32.049Z,74.56
2022-10-15T21:12:36.936Z,74.68
2022-10-15T21:17:58.603Z,74.60
2022-10-15T21:23:01.500Z,74.73
2022-10-15T21:28:22.240Z,74.78
2022-10-15T21:33:24.721Z,74.54
2022-10-15T21:38:26.910Z,74.93
2022-10-15T21:43:29.175Z,74.74
2022-10-15T21:48:31.359Z,74.70
2022-10-15T21:53:33.642Z,74.82
2022-10-15T21:58:38.110Z,74.84
2022-10-15T22:03:40.778Z,74.80
2022-10-15T22:08:43.359Z,74.84
2022-10-15T22:14:06.893Z,74.90
2022-10-15T22:19:11.863Z,74.90
2022-10-15T22:24:33.198Z,75.09
2022-10-15T22:29:35.582Z,74.91
2022-10-15T22:34:37.818Z,74.81
2022-10-15T22:39:40.772Z,74.86
2022-10-15T22:44:42.984Z,74.77
2022-10-15T22:49:45.324Z,74.66
2022-10-15T22:54:47.555Z,74.78
2022-10-15T22:59:57.174Z,74.79
2022-10-15T23:05:01.587Z,74.90
2022-10-15T23:10:22.906Z,74.81
2022-10-15T23:15:25.083Z,74.90
2022-10-15T23:20:27.346Z,74.88
2022-10-15T23:25:30.659Z,74.93
2022-10-15T23:30:32.872Z,74.87
2022-10-15T23:41:07.634Z,75.23
2022-10-15T23:46:10.145Z,75.07
2022-10-15T23:51:21.873Z,75.38
2022-10-15T23:56:24.744Z,75.06
